sensor_id;sensor_type;location;lat;lon;timestamp;P1;durP1;ratioP1;P2;durP2;ratioP2
55813;SDS011;65494;42.818;0.404;2022-12-18T06:26:05;9.40;;;3.33;;
55813;SDS011;65494;42.818;0.404;2022-12-18T06:31:09;4.53;;;1.95;;
55813;SDS011;65494;42.818;0.404;2022-12-18T06:33:36;8.25;;;2.80;;
55813;SDS011;65494;42.818;0.404;2022-12-18T06:36:11;8.77;;;3.85;;
55813;SDS011;65494;42.818;0.404;2022-12-18T08:50:21;11.32;;;4.07;;
55813;SDS011;65494;42.818;0.404;2022-12-18T08:53:06;8.95;;;3.95;;
55813;SDS011;65494;42.818;0.404;2022-12-18T08:55:32;8.23;;;3.63;;
55813;SDS011;65494;42.818;0.404;2022-12-18T08:57:58;11.75;;;6.20;;
55813;SDS011;65494;42.818;0.404;2022-12-18T09:00:24;14.23;;;4.78;;
55813;SDS011;65494;42.818;0.404;2022-12-18T09:02:50;18.50;;;6.45;;
55813;SDS011;65494;42.818;0.404;2022-12-18T09:05:16;13.52;;;5.53;;
55813;SDS011;65494;42.818;0.404;2022-12-18T09:07:42;13.18;;;6.13;;
55813;SDS011;65494;42.818;0.404;2022-12-18T09:10:08;12.32;;;5.53;;
55813;SDS011;65494;42.818;0.404;2022-12-18T09:12:34;7.43;;;3.33;;
55813;SDS011;65494;42.818;0.404;2022-12-18T09:15:00;8.40;;;4.30;;
55813;SDS011;65494;42.818;0.404;2022-12-18T09:17:27;10.00;;;4.60;;
55813;SDS011;65494;42.818;0.404;2022-12-18T09:19:53;11.63;;;4.88;;
55813;SDS011;65494;42.818;0.404;2022-12-18T09:22:19;12.65;;;5.60;;
55813;SDS011;65494;42.818;0.404;2022-12-18T09:24:45;10.88;;;5.30;;
55813;SDS011;65494;42.818;0.404;2022-12-18T09:27:11;9.00;;;4.25;;
55813;SDS011;65494;42.818;0.404;2022-12-18T09:29:37;9.82;;;4.43;;
55813;SDS011;65494;42.818;0.404;2022-12-18T09:32:03;10.52;;;4.75;;
55813;SDS011;65494;42.818;0.404;2022-12-18T09:34:29;9.02;;;4.03;;
55813;SDS011;65494;42.818;0.404;2022-12-18T09:36:55;7.97;;;2.80;;
55813;SDS011;65494;42.818;0.404;2022-12-18T09:39:21;9.77;;;3.40;;
55813;SDS011;65494;42.818;0.404;2022-12-18T09:41:55;12.68;;;5.53;;
55813;SDS011;65494;42.818;0.404;2022-12-18T09:44:56;10.27;;;5.38;;
55813;SDS011;65494;42.818;0.404;2022-12-18T09:49:49;8.48;;;2.97;;
55813;SDS011;65494;42.818;0.404;2022-12-18T09:54:42;9.48;;;4.22;;
55813;SDS011;65494;42.818;0.404;2022-12-18T09:57:13;10.38;;;4.30;;
55813;SDS011;65494;42.818;0.404;2022-12-18T09:59:40;8.43;;;4.10;;
55813;SDS011;65494;42.818;0.404;2022-12-18T10:02:29;9.65;;;4.15;;
55813;SDS011;65494;42.818;0.404;2022-12-18T10:07:43;9.88;;;3.38;;
55813;SDS011;65494;42.818;0.404;2022-12-18T10:10:07;10.57;;;1.50;;
55813;SDS011;65494;42.818;0.404;2022-12-18T10:12:40;6.43;;;2.70;;
55813;SDS011;65494;42.818;0.404;2022-12-18T10:17:45;4.85;;;2.47;;
55813;SDS011;65494;42.818;0.404;2022-12-18T10:27:45;6.22;;;2.40;;
55813;SDS011;65494;42.818;0.404;2022-12-18T10:30:12;6.35;;;2.90;;
55813;SDS011;65494;42.818;0.404;2022-12-18T10:32:39;6.90;;;3.17;;
55813;SDS011;65494;42.818;0.404;2022-12-18T10:35:07;28.02;;;14.80;;
55813;SDS011;65494;42.818;0.404;2022-12-18T10:37:35;4.28;;;1.90;;
55813;SDS011;65494;42.818;0.404;2022-12-18T10:40:12;5.40;;;2.30;;
55813;SDS011;65494;42.818;0.404;2022-12-18T10:42:38;7.93;;;2.90;;
55813;SDS011;65494;42.818;0.404;2022-12-18T10:45:14;6.97;;;2.88;;
55813;SDS011;65494;42.818;0.404;2022-12-18T10:47:44;7.53;;;3.08;;
55813;SDS011;65494;42.818;0.404;2022-12-18T10:50:45;10.30;;;2.60;;
55813;SDS011;65494;42.818;0.404;2022-12-18T10:53:03;4.80;;;2.40;;
55813;SDS011;65494;42.818;0.404;2022-12-18T10:55:38;4.70;;;2.03;;
55813;SDS011;65494;42.818;0.404;2022-12-18T11:00:40;5.63;;;2.80;;
55813;SDS011;65494;42.818;0.404;2022-12-18T11:03:28;6.80;;;2.75;;
55813;SDS011;65494;42.818;0.404;2022-12-18T11:06:03;5.10;;;2.75;;
55813;SDS011;65494;42.818;0.404;2022-12-18T11:08:29;4.32;;;2.50;;
55813;SDS011;65494;42.818;0.404;2022-12-18T11:10:55;3.63;;;2.00;;
55813;SDS011;65494;42.818;0.404;2022-12-18T11:13:25;6.80;;;2.90;;
55813;SDS011;65494;42.818;0.404;2022-12-18T11:15:52;6.13;;;2.80;;
55813;SDS011;65494;42.818;0.404;2022-12-18T11:18:34;5.00;;;2.30;;
55813;SDS011;65494;42.818;0.404;2022-12-18T11:23:26;7.90;;;4.50;;
55813;SDS011;65494;42.818;0.404;2022-12-18T11:25:57;5.07;;;2.60;;
55813;SDS011;65494;42.818;0.404;2022-12-18T11:28:25;3.17;;;1.55;;
55813;SDS011;65494;42.818;0.404;2022-12-18T11:33:37;3.30;;;1.65;;
55813;SDS011;65494;42.818;0.404;2022-12-18T11:36:05;3.30;;;1.10;;
55813;SDS011;65494;42.818;0.404;2022-12-18T11:38:34;1.65;;;0.98;;
55813;SDS011;65494;42.818;0.404;2022-12-18T11:41:05;2.05;;;1.20;;
55813;SDS011;65494;42.818;0.404;2022-12-18T11:43:41;1.60;;;1.02;;
55813;SDS011;65494;42.818;0.404;2022-12-18T11:46:14;4.22;;;2.25;;
55813;SDS011;65494;42.818;0.404;2022-12-18T11:51:26;2.50;;;1.52;;
55813;SDS011;65494;42.818;0.404;2022-12-18T11:53:54;2.08;;;1.30;;
55813;SDS011;65494;42.818;0.404;2022-12-18T11:56:32;5.75;;;1.77;;
55813;SDS011;65494;42.818;0.404;2022-12-18T11:59:07;4.78;;;2.08;;
55813;SDS011;65494;42.818;0.404;2022-12-18T12:04:09;5.18;;;1.38;;
55813;SDS011;65494;42.818;0.404;2022-12-18T12:06:58;2.25;;;0.95;;
55813;SDS011;65494;42.818;0.404;2022-12-18T12:17:14;3.40;;;1.42;;
55813;SDS011;65494;42.818;0.404;2022-12-18T12:20:25;5.30;;;2.33;;
55813;SDS011;65494;42.818;0.404;2022-12-18T12:25:33;1.77;;;1.00;;
55813;SDS011;65494;42.818;0.404;2022-12-18T12:30:42;1.88;;;0.88;;
55813;SDS011;65494;42.818;0.404;2022-12-18T12:33:15;1.23;;;0.77;;
55813;SDS011;65494;42.818;0.404;2022-12-18T12:35:52;2.63;;;0.90;;
55813;SDS011;65494;42.818;0.404;2022-12-18T12:38:34;2.03;;;0.77;;
55813;SDS011;65494;42.818;0.404;2022-12-18T12:41:02;3.45;;;2.20;;
55813;SDS011;65494;42.818;0.404;2022-12-18T12:43:35;2.30;;;1.50;;
55813;SDS011;65494;42.818;0.404;2022-12-18T12:46:04;4.18;;;1.60;;
55813;SDS011;65494;42.818;0.404;2022-12-18T12:51:00;3.72;;;1.52;;
55813;SDS011;65494;42.818;0.404;2022-12-18T12:53:29;4.10;;;2.00;;
55813;SDS011;65494;42.818;0.404;2022-12-18T12:55:56;3.72;;;2.00;;
55813;SDS011;65494;42.818;0.404;2022-12-18T12:58:26;1.52;;;0.88;;
55813;SDS011;65494;42.818;0.404;2022-12-18T13:03:42;0.52;;;0.52;;
55813;SDS011;65494;42.818;0.404;2022-12-18T13:06:23;1.10;;;0.50;;
55813;SDS011;65494;42.818;0.404;2022-12-18T13:08:58;2.13;;;0.88;;
55813;SDS011;65494;42.818;0.404;2022-12-18T13:11:35;3.90;;;1.65;;
55813;SDS011;65494;42.818;0.404;2022-12-18T13:17:16;14.55;;;5.53;;
55813;SDS011;65494;42.818;0.404;2022-12-18T13:19:43;8.75;;;4.03;;
55813;SDS011;65494;42.818;0.404;2022-12-18T13:22:31;4.20;;;1.60;;
55813;SDS011;65494;42.818;0.404;2022-12-18T13:24:55;7.20;;;1.92;;
55813;SDS011;65494;42.818;0.404;2022-12-18T13:33:12;9.88;;;1.70;;
55813;SDS011;65494;42.818;0.404;2022-12-18T13:35:37;3.97;;;1.23;;
55813;SDS011;65494;42.818;0.404;2022-12-18T13:38:18;8.77;;;2.10;;
55813;SDS011;65494;42.818;0.404;2022-12-18T13:48:29;3.60;;;1.05;;
55813;SDS011;65494;42.818;0.404;2022-12-18T13:53:27;3.20;;;1.27;;
55813;SDS011;65494;42.818;0.404;2022-12-18T13:55:54;1.20;;;0.60;;
55813;SDS011;65494;42.818;0.404;2022-12-18T13:58:20;0.65;;;0.50;;
55813;SDS011;65494;42.818;0.404;2022-12-18T14:00:46;2.45;;;0.57;;
55813;SDS011;65494;42.818;0.404;2022-12-18T14:03:22;0.90;;;0.70;;
55813;SDS011;65494;42.818;0.404;2022-12-18T14:06:06;1.95;;;0.80;;
55813;SDS011;65494;42.818;0.404;2022-12-18T14:08:38;0.85;;;0.50;;
55813;SDS011;65494;42.818;0.404;2022-12-18T14:11:04;0.35;;;0.32;;
55813;SDS011;65494;42.818;0.404;2022-12-18T14:13:33;3.03;;;0.82;;
55813;SDS011;65494;42.818;0.404;2022-12-18T14:16:00;1.83;;;0.60;;
55813;SDS011;65494;42.818;0.404;2022-12-18T14:20:57;5.28;;;0.60;;
55813;SDS011;65494;42.818;0.404;2022-12-18T14:23:31;0.50;;;0.50;;
55813;SDS011;65494;42.818;0.404;2022-12-18T14:25:57;3.95;;;0.50;;
55813;SDS011;65494;42.818;0.404;2022-12-18T14:28:23;3.22;;;0.40;;
55813;SDS011;65494;42.818;0.404;2022-12-18T14:30:51;1.42;;;0.60;;
55813;SDS011;65494;42.818;0.404;2022-12-18T14:33:18;0.73;;;0.32;;
55813;SDS011;65494;42.818;0.404;2022-12-18T14:41:02;2.33;;;0.60;;
55813;SDS011;65494;42.818;0.404;2022-12-18T14:43:33;1.23;;;0.40;;
55813;SDS011;65494;42.818;0.404;2022-12-18T14:45:59;1.95;;;0.65;;
55813;SDS011;65494;42.818;0.404;2022-12-18T14:48:34;10.95;;;5.43;;
55813;SDS011;65494;42.818;0.404;2022-12-18T14:51:02;4.87;;;2.17;;
55813;SDS011;65494;42.818;0.404;2022-12-18T14:53:36;5.38;;;2.38;;
55813;SDS011;65494;42.818;0.404;2022-12-18T14:56:03;26.98;;;14.10;;
55813;SDS011;65494;42.818;0.404;2022-12-18T14:58:35;19.92;;;11.65;;
55813;SDS011;65494;42.818;0.404;2022-12-18T15:01:02;45.97;;;25.40;;
55813;SDS011;65494;42.818;0.404;2022-12-18T15:03:28;5.07;;;2.20;;
55813;SDS011;65494;42.818;0.404;2022-12-18T15:05:54;13.23;;;5.80;;
55813;SDS011;65494;42.818;0.404;2022-12-18T15:08:30;5.35;;;1.88;;
55813;SDS011;65494;42.818;0.404;2022-12-18T15:10:56;5.43;;;2.58;;
55813;SDS011;65494;42.818;0.404;2022-12-18T15:13:23;17.85;;;8.57;;
55813;SDS011;65494;42.818;0.404;2022-12-18T15:15:50;8.00;;;3.97;;
55813;SDS011;65494;42.818;0.404;2022-12-18T15:18:35;24.38;;;13.95;;
55813;SDS011;65494;42.818;0.404;2022-12-18T15:21:09;19.98;;;11.38;;
55813;SDS011;65494;42.818;0.404;2022-12-18T15:23:46;13.05;;;7.30;;
55813;SDS011;65494;42.818;0.404;2022-12-18T15:26:14;40.92;;;19.42;;
55813;SDS011;65494;42.818;0.404;2022-12-18T15:33:45;17.98;;;8.90;;
55813;SDS011;65494;42.818;0.404;2022-12-18T15:36:25;12.75;;;7.38;;
55813;SDS011;65494;42.818;0.404;2022-12-18T15:38:52;12.27;;;7.38;;
55813;SDS011;65494;42.818;0.404;2022-12-18T15:41:19;28.58;;;16.83;;
55813;SDS011;65494;42.818;0.404;2022-12-18T15:43:46;10.95;;;6.18;;
55813;SDS011;65494;42.818;0.404;2022-12-18T15:46:14;17.63;;;8.15;;
55813;SDS011;65494;42.818;0.404;2022-12-18T15:48:43;9.90;;;4.18;;
55813;SDS011;65494;42.818;0.404;2022-12-18T15:53:38;19.50;;;11.82;;
55813;SDS011;65494;42.818;0.404;2022-12-18T15:56:04;23.65;;;14.13;;
55813;SDS011;65494;42.818;0.404;2022-12-18T15:58:49;21.03;;;11.43;;
55813;SDS011;65494;42.818;0.404;2022-12-18T16:01:15;10.25;;;4.20;;
55813;SDS011;65494;42.818;0.404;2022-12-18T16:03:41;11.00;;;5.60;;
55813;SDS011;65494;42.818;0.404;2022-12-18T16:06:08;29.60;;;15.35;;
55813;SDS011;65494;42.818;0.404;2022-12-18T16:08:34;22.75;;;10.95;;
55813;SDS011;65494;42.818;0.404;2022-12-18T16:11:00;19.90;;;10.73;;
55813;SDS011;65494;42.818;0.404;2022-12-18T16:13:27;17.77;;;8.95;;
55813;SDS011;65494;42.818;0.404;2022-12-18T16:15:53;28.00;;;9.40;;
55813;SDS011;65494;42.818;0.404;2022-12-18T16:18:19;8.70;;;4.50;;
55813;SDS011;65494;42.818;0.404;2022-12-18T16:20:45;7.32;;;3.38;;
55813;SDS011;65494;42.818;0.404;2022-12-18T16:23:11;3.85;;;1.60;;
55813;SDS011;65494;42.818;0.404;2022-12-18T16:25:37;9.93;;;5.10;;
55813;SDS011;65494;42.818;0.404;2022-12-18T16:28:03;9.43;;;4.38;;
55813;SDS011;65494;42.818;0.404;2022-12-18T16:30:30;13.57;;;5.65;;
55813;SDS011;65494;42.818;0.404;2022-12-18T16:32:59;20.08;;;7.68;;
55813;SDS011;65494;42.818;0.404;2022-12-18T16:35:25;17.90;;;9.00;;
55813;SDS011;65494;42.818;0.404;2022-12-18T16:37:52;12.40;;;4.30;;
55813;SDS011;65494;42.818;0.404;2022-12-18T16:40:18;7.53;;;2.63;;
55813;SDS011;65494;42.818;0.404;2022-12-18T16:42:45;12.00;;;4.05;;
55813;SDS011;65494;42.818;0.404;2022-12-18T16:45:13;13.85;;;5.25;;
55813;SDS011;65494;42.818;0.404;2022-12-18T16:47:39;12.32;;;4.90;;
55813;SDS011;65494;42.818;0.404;2022-12-18T16:50:06;9.43;;;3.50;;
55813;SDS011;65494;42.818;0.404;2022-12-18T16:52:32;5.05;;;2.70;;
55813;SDS011;65494;42.818;0.404;2022-12-18T16:54:59;16.75;;;6.95;;
55813;SDS011;65494;42.818;0.404;2022-12-18T16:57:25;17.00;;;7.72;;
55813;SDS011;65494;42.818;0.404;2022-12-18T16:59:51;18.73;;;7.30;;
55813;SDS011;65494;42.818;0.404;2022-12-18T17:02:19;11.73;;;5.35;;
55813;SDS011;65494;42.818;0.404;2022-12-18T17:04:45;17.00;;;7.30;;
55813;SDS011;65494;42.818;0.404;2022-12-18T17:07:12;20.58;;;11.75;;
55813;SDS011;65494;42.818;0.404;2022-12-18T17:09:38;19.25;;;10.30;;
55813;SDS011;65494;42.818;0.404;2022-12-18T17:12:04;34.55;;;15.38;;
55813;SDS011;65494;42.818;0.404;2022-12-18T17:14:31;23.73;;;9.90;;
55813;SDS011;65494;42.818;0.404;2022-12-18T17:16:57;18.67;;;7.47;;
55813;SDS011;65494;42.818;0.404;2022-12-18T17:19:26;20.35;;;8.52;;
55813;SDS011;65494;42.818;0.404;2022-12-18T17:21:53;15.77;;;7.65;;
55813;SDS011;65494;42.818;0.404;2022-12-18T17:24:19;11.32;;;4.70;;
55813;SDS011;65494;42.818;0.404;2022-12-18T17:26:46;23.70;;;12.52;;
55813;SDS011;65494;42.818;0.404;2022-12-18T17:29:13;9.95;;;4.78;;
55813;SDS011;65494;42.818;0.404;2022-12-18T17:31:39;10.45;;;5.03;;
55813;SDS011;65494;42.818;0.404;2022-12-18T17:34:06;12.52;;;5.57;;
55813;SDS011;65494;42.818;0.404;2022-12-18T17:36:32;13.38;;;6.07;;
55813;SDS011;65494;42.818;0.404;2022-12-18T17:38:59;13.35;;;6.50;;
55813;SDS011;65494;42.818;0.404;2022-12-18T17:41:26;15.98;;;6.90;;
55813;SDS011;65494;42.818;0.404;2022-12-18T17:43:52;15.80;;;6.93;;
55813;SDS011;65494;42.818;0.404;2022-12-18T17:46:19;19.60;;;8.20;;
55813;SDS011;65494;42.818;0.404;2022-12-18T17:48:46;10.32;;;5.50;;
55813;SDS011;65494;42.818;0.404;2022-12-18T17:51:12;10.75;;;5.30;;
55813;SDS011;65494;42.818;0.404;2022-12-18T17:53:39;16.35;;;8.40;;
55813;SDS011;65494;42.818;0.404;2022-12-18T17:56:05;22.15;;;10.30;;
55813;SDS011;65494;42.818;0.404;2022-12-18T17:58:32;16.63;;;7.43;;
55813;SDS011;65494;42.818;0.404;2022-12-18T18:00:58;19.00;;;8.13;;
55813;SDS011;65494;42.818;0.404;2022-12-18T18:03:25;18.42;;;8.43;;
55813;SDS011;65494;42.818;0.404;2022-12-18T18:05:54;15.98;;;7.20;;
55813;SDS011;65494;42.818;0.404;2022-12-18T18:08:21;18.48;;;8.13;;
55813;SDS011;65494;42.818;0.404;2022-12-18T18:10:47;19.35;;;8.93;;
55813;SDS011;65494;42.818;0.404;2022-12-18T18:13:19;21.73;;;9.13;;
55813;SDS011;65494;42.818;0.404;2022-12-18T18:16:04;64.38;;;26.38;;
55813;SDS011;65494;42.818;0.404;2022-12-18T18:18:30;38.85;;;18.25;;
55813;SDS011;65494;42.818;0.404;2022-12-18T18:20:57;15.88;;;5.43;;
55813;SDS011;65494;42.818;0.404;2022-12-18T18:23:24;15.93;;;8.00;;
55813;SDS011;65494;42.818;0.404;2022-12-18T18:25:53;18.95;;;9.65;;
55813;SDS011;65494;42.818;0.404;2022-12-18T18:30:55;17.65;;;7.55;;
55813;SDS011;65494;42.818;0.404;2022-12-18T18:33:24;16.85;;;7.47;;
55813;SDS011;65494;42.818;0.404;2022-12-18T18:35:50;15.40;;;6.78;;
55813;SDS011;65494;42.818;0.404;2022-12-18T18:38:17;25.35;;;13.73;;
55813;SDS011;65494;42.818;0.404;2022-12-18T18:40:43;13.82;;;5.68;;
55813;SDS011;65494;42.818;0.404;2022-12-18T18:43:11;49.85;;;28.27;;
55813;SDS011;65494;42.818;0.404;2022-12-18T18:45:37;23.40;;;11.25;;
55813;SDS011;65494;42.818;0.404;2022-12-18T18:48:06;24.90;;;11.20;;
55813;SDS011;65494;42.818;0.404;2022-12-18T18:50:33;25.60;;;11.10;;
55813;SDS011;65494;42.818;0.404;2022-12-18T18:53:04;23.42;;;12.38;;
55813;SDS011;65494;42.818;0.404;2022-12-18T18:55:36;27.10;;;12.93;;
55813;SDS011;65494;42.818;0.404;2022-12-18T19:14:41;13.00;;;6.03;;
55813;SDS011;65494;42.818;0.404;2022-12-18T19:17:24;24.27;;;11.05;;
55813;SDS011;65494;42.818;0.404;2022-12-18T19:19:50;22.98;;;9.80;;
55813;SDS011;65494;42.818;0.404;2022-12-18T19:22:19;60.70;;;30.15;;
55813;SDS011;65494;42.818;0.404;2022-12-18T19:24:45;65.05;;;29.58;;
55813;SDS011;65494;42.818;0.404;2022-12-18T19:27:11;44.40;;;19.98;;
55813;SDS011;65494;42.818;0.404;2022-12-18T19:29:37;60.05;;;27.73;;
55813;SDS011;65494;42.818;0.404;2022-12-18T19:32:03;53.78;;;26.17;;
55813;SDS011;65494;42.818;0.404;2022-12-18T19:34:29;38.17;;;14.57;;
55813;SDS011;65494;42.818;0.404;2022-12-18T19:36:58;23.73;;;11.18;;
55813;SDS011;65494;42.818;0.404;2022-12-18T19:42:09;27.58;;;12.32;;
55813;SDS011;65494;42.818;0.404;2022-12-18T19:45:17;25.73;;;11.98;;
55813;SDS011;65494;42.818;0.404;2022-12-18T19:54:09;31.30;;;12.98;;
55813;SDS011;65494;42.818;0.404;2022-12-18T19:56:45;30.85;;;11.95;;
55813;SDS011;65494;42.818;0.404;2022-12-18T20:02:12;26.75;;;10.57;;
55813;SDS011;65494;42.818;0.404;2022-12-18T20:04:42;21.17;;;8.40;;
55813;SDS011;65494;42.818;0.404;2022-12-18T20:07:10;14.98;;;7.20;;
55813;SDS011;65494;42.818;0.404;2022-12-18T20:09:36;15.27;;;5.95;;
55813;SDS011;65494;42.818;0.404;2022-12-18T20:12:02;30.10;;;11.80;;
55813;SDS011;65494;42.818;0.404;2022-12-18T20:14:29;24.65;;;11.13;;
55813;SDS011;65494;42.818;0.404;2022-12-18T20:17:03;32.27;;;13.17;;
55813;SDS011;65494;42.818;0.404;2022-12-18T20:19:30;52.45;;;19.33;;
55813;SDS011;65494;42.818;0.404;2022-12-18T20:21:56;84.82;;;38.92;;
55813;SDS011;65494;42.818;0.404;2022-12-18T20:24:22;47.25;;;23.48;;
55813;SDS011;65494;42.818;0.404;2022-12-18T20:26:50;38.60;;;18.88;;
55813;SDS011;65494;42.818;0.404;2022-12-18T20:29:18;33.25;;;16.23;;
55813;SDS011;65494;42.818;0.404;2022-12-18T20:31:45;30.35;;;13.90;;
55813;SDS011;65494;42.818;0.404;2022-12-18T20:34:11;30.17;;;13.18;;
55813;SDS011;65494;42.818;0.404;2022-12-18T20:36:38;27.98;;;12.13;;
55813;SDS011;65494;42.818;0.404;2022-12-18T20:39:04;27.75;;;11.77;;
55813;SDS011;65494;42.818;0.404;2022-12-18T20:41:30;27.75;;;12.48;;
55813;SDS011;65494;42.818;0.404;2022-12-18T20:43:56;19.23;;;8.30;;
55813;SDS011;65494;42.818;0.404;2022-12-18T20:46:22;28.65;;;12.60;;
55813;SDS011;65494;42.818;0.404;2022-12-18T20:48:49;35.00;;;14.65;;
55813;SDS011;65494;42.818;0.404;2022-12-18T20:51:16;29.83;;;12.50;;
55813;SDS011;65494;42.818;0.404;2022-12-18T20:53:43;23.25;;;10.45;;
55813;SDS011;65494;42.818;0.404;2022-12-18T20:56:11;22.38;;;9.95;;
55813;SDS011;65494;42.818;0.404;2022-12-18T20:58:38;29.27;;;13.25;;
55813;SDS011;65494;42.818;0.404;2022-12-18T21:03:30;33.88;;;15.13;;
55813;SDS011;65494;42.818;0.404;2022-12-18T21:05:56;25.65;;;11.25;;
55813;SDS011;65494;42.818;0.404;2022-12-18T21:08:22;31.50;;;16.05;;
55813;SDS011;65494;42.818;0.404;2022-12-18T21:10:49;29.92;;;12.68;;
55813;SDS011;65494;42.818;0.404;2022-12-18T21:13:16;27.10;;;11.98;;
55813;SDS011;65494;42.818;0.404;2022-12-18T21:15:42;23.25;;;9.43;;
55813;SDS011;65494;42.818;0.404;2022-12-18T21:18:08;24.10;;;10.35;;
55813;SDS011;65494;42.818;0.404;2022-12-18T21:20:34;21.25;;;9.88;;
55813;SDS011;65494;42.818;0.404;2022-12-18T21:23:00;20.40;;;9.20;;
55813;SDS011;65494;42.818;0.404;2022-12-18T21:25:28;24.88;;;11.23;;
55813;SDS011;65494;42.818;0.404;2022-12-18T21:27:54;27.30;;;12.60;;
55813;SDS011;65494;42.818;0.404;2022-12-18T21:30:21;21.50;;;8.20;;
55813;SDS011;65494;42.818;0.404;2022-12-18T21:32:47;30.40;;;12.82;;
55813;SDS011;65494;42.818;0.404;2022-12-18T21:35:13;23.83;;;9.80;;
55813;SDS011;65494;42.818;0.404;2022-12-18T21:37:39;21.70;;;8.45;;
55813;SDS011;65494;42.818;0.404;2022-12-18T21:40:07;14.95;;;5.78;;
55813;SDS011;65494;42.818;0.404;2022-12-18T21:42:33;23.15;;;10.23;;
55813;SDS011;65494;42.818;0.404;2022-12-18T21:45:18;21.07;;;9.67;;
55813;SDS011;65494;42.818;0.404;2022-12-18T21:47:46;19.52;;;9.65;;
55813;SDS011;65494;42.818;0.404;2022-12-18T21:50:13;36.83;;;19.30;;
55813;SDS011;65494;42.818;0.404;2022-12-18T21:52:39;30.98;;;16.30;;
55813;SDS011;65494;42.818;0.404;2022-12-18T21:55:05;27.65;;;14.05;;
55813;SDS011;65494;42.818;0.404;2022-12-18T21:57:32;19.48;;;9.15;;
55813;SDS011;65494;42.818;0.404;2022-12-18T21:59:58;19.10;;;8.60;;
55813;SDS011;65494;42.818;0.404;2022-12-18T22:02:24;21.33;;;9.50;;
55813;SDS011;65494;42.818;0.404;2022-12-18T22:04:50;18.25;;;9.73;;
55813;SDS011;65494;42.818;0.404;2022-12-18T22:07:16;14.98;;;6.43;;
55813;SDS011;65494;42.818;0.404;2022-12-18T22:09:42;12.98;;;6.05;;
55813;SDS011;65494;42.818;0.404;2022-12-18T22:12:09;34.30;;;12.85;;
55813;SDS011;65494;42.818;0.404;2022-12-18T22:14:37;23.67;;;9.80;;
55813;SDS011;65494;42.818;0.404;2022-12-18T22:17:03;24.55;;;10.73;;
55813;SDS011;65494;42.818;0.404;2022-12-18T22:19:29;22.38;;;9.95;;
55813;SDS011;65494;42.818;0.404;2022-12-18T22:21:55;20.40;;;8.30;;
55813;SDS011;65494;42.818;0.404;2022-12-18T22:24:22;21.23;;;8.60;;
55813;SDS011;65494;42.818;0.404;2022-12-18T22:26:49;21.27;;;8.52;;
55813;SDS011;65494;42.818;0.404;2022-12-18T22:29:35;27.67;;;11.90;;
55813;SDS011;65494;42.818;0.404;2022-12-18T22:32:19;22.27;;;8.82;;
55813;SDS011;65494;42.818;0.404;2022-12-18T22:34:46;21.13;;;7.55;;
55813;SDS011;65494;42.818;0.404;2022-12-18T22:37:12;18.40;;;8.65;;
55813;SDS011;65494;42.818;0.404;2022-12-18T22:39:38;19.52;;;8.80;;
55813;SDS011;65494;42.818;0.404;2022-12-18T22:42:04;18.50;;;9.05;;
55813;SDS011;65494;42.818;0.404;2022-12-18T22:44:30;21.17;;;8.77;;
55813;SDS011;65494;42.818;0.404;2022-12-18T22:46:56;23.27;;;9.60;;
55813;SDS011;65494;42.818;0.404;2022-12-18T22:49:25;19.10;;;8.52;;
55813;SDS011;65494;42.818;0.404;2022-12-18T22:51:53;25.48;;;10.70;;
55813;SDS011;65494;42.818;0.404;2022-12-18T22:54:20;16.85;;;7.20;;
55813;SDS011;65494;42.818;0.404;2022-12-18T22:56:46;21.17;;;7.60;;
55813;SDS011;65494;42.818;0.404;2022-12-18T22:59:18;28.63;;;11.20;;
55813;SDS011;65494;42.818;0.404;2022-12-18T23:01:45;23.98;;;9.18;;
55813;SDS011;65494;42.818;0.404;2022-12-18T23:04:11;17.25;;;7.75;;
55813;SDS011;65494;42.818;0.404;2022-12-18T23:06:38;21.65;;;8.75;;
55813;SDS011;65494;42.818;0.404;2022-12-18T23:09:06;17.55;;;7.75;;
55813;SDS011;65494;42.818;0.404;2022-12-18T23:11:32;14.77;;;6.10;;
55813;SDS011;65494;42.818;0.404;2022-12-18T23:13:58;13.30;;;5.80;;
55813;SDS011;65494;42.818;0.404;2022-12-18T23:16:24;11.23;;;4.30;;
55813;SDS011;65494;42.818;0.404;2022-12-18T23:18:54;16.30;;;5.95;;
55813;SDS011;65494;42.818;0.404;2022-12-18T23:21:20;15.95;;;6.50;;
55813;SDS011;65494;42.818;0.404;2022-12-18T23:23:47;19.48;;;7.90;;
55813;SDS011;65494;42.818;0.404;2022-12-18T23:26:14;22.15;;;9.20;;
55813;SDS011;65494;42.818;0.404;2022-12-18T23:28:51;22.55;;;8.63;;
55813;SDS011;65494;42.818;0.404;2022-12-18T23:31:19;16.55;;;6.30;;
55813;SDS011;65494;42.818;0.404;2022-12-18T23:33:47;14.52;;;3.95;;
55813;SDS011;65494;42.818;0.404;2022-12-18T23:36:14;12.82;;;4.65;;
55813;SDS011;65494;42.818;0.404;2022-12-18T23:38:41;15.23;;;5.03;;
55813;SDS011;65494;42.818;0.404;2022-12-18T23:41:12;14.55;;;5.40;;
55813;SDS011;65494;42.818;0.404;2022-12-18T23:43:41;12.13;;;4.80;;
55813;SDS011;65494;42.818;0.404;2022-12-18T23:46:18;12.90;;;5.20;;
55813;SDS011;65494;42.818;0.404;2022-12-18T23:48:44;11.10;;;4.50;;
55813;SDS011;65494;42.818;0.404;2022-12-18T23:51:11;11.25;;;4.43;;
55813;SDS011;65494;42.818;0.404;2022-12-18T23:53:38;10.65;;;3.13;;
55813;SDS011;65494;42.818;0.404;2022-12-18T23:56:06;14.50;;;3.88;;
55813;SDS011;65494;42.818;0.404;2022-12-18T23:58:32;12.90;;;4.95;;
